sensor_id;sensor_type;location;lat;lon;timestamp;P1;durP1;ratioP1;P2;durP2;ratioP2
69523;SDS011;56723;42.694;23.286;2022-11-23T06:25:26;45.03;;;32.33;;
69523;SDS011;56723;42.694;23.286;2022-11-23T06:27:58;40.37;;;30.23;;
69523;SDS011;56723;42.694;23.286;2022-11-23T06:30:34;39.83;;;29.97;;
69523;SDS011;56723;42.694;23.286;2022-11-23T06:33:05;42.90;;;31.90;;
69523;SDS011;56723;42.694;23.286;2022-11-23T06:35:38;43.57;;;31.60;;
69523;SDS011;56723;42.694;23.286;2022-11-23T06:38:05;38.10;;;30.40;;
69523;SDS011;56723;42.694;23.286;2022-11-23T06:40:32;36.47;;;26.93;;
69523;SDS011;56723;42.694;23.286;2022-11-23T06:43:01;37.03;;;27.20;;
69523;SDS011;56723;42.694;23.286;2022-11-23T06:45:37;41.90;;;30.03;;
69523;SDS011;56723;42.694;23.286;2022-11-23T06:48:07;37.47;;;28.70;;
69523;SDS011;56723;42.694;23.286;2022-11-23T06:50:40;50.60;;;41.80;;
69523;SDS011;56723;42.694;23.286;2022-11-23T06:53:07;53.27;;;40.50;;
69523;SDS011;56723;42.694;23.286;2022-11-23T06:55:45;46.70;;;35.93;;
69523;SDS011;56723;42.694;23.286;2022-11-23T06:58:15;50.53;;;36.80;;
69523;SDS011;56723;42.694;23.286;2022-11-23T07:00:43;44.17;;;32.80;;
69523;SDS011;56723;42.694;23.286;2022-11-23T07:03:17;42.40;;;32.10;;
69523;SDS011;56723;42.694;23.286;2022-11-23T07:05:49;37.17;;;29.47;;
69523;SDS011;56723;42.694;23.286;2022-11-23T07:08:21;36.17;;;26.77;;
69523;SDS011;56723;42.694;23.286;2022-11-23T07:10:49;39.97;;;31.50;;
69523;SDS011;56723;42.694;23.286;2022-11-23T07:13:16;39.47;;;29.50;;
69523;SDS011;56723;42.694;23.286;2022-11-23T07:15:44;38.03;;;29.17;;
69523;SDS011;56723;42.694;23.286;2022-11-23T07:18:13;37.13;;;28.77;;
69523;SDS011;56723;42.694;23.286;2022-11-23T07:20:46;38.80;;;30.03;;
69523;SDS011;56723;42.694;23.286;2022-11-23T07:23:14;41.23;;;30.53;;
69523;SDS011;56723;42.694;23.286;2022-11-23T07:25:44;39.37;;;29.40;;
69523;SDS011;56723;42.694;23.286;2022-11-23T07:28:11;39.90;;;28.50;;
69523;SDS011;56723;42.694;23.286;2022-11-23T07:30:40;29.55;;;24.38;;
69523;SDS011;56723;42.694;23.286;2022-11-23T07:33:08;32.37;;;25.83;;
69523;SDS011;56723;42.694;23.286;2022-11-23T07:35:38;35.40;;;24.77;;
69523;SDS011;56723;42.694;23.286;2022-11-23T07:38:07;28.35;;;22.23;;
69523;SDS011;56723;42.694;23.286;2022-11-23T07:40:35;38.97;;;29.33;;
69523;SDS011;56723;42.694;23.286;2022-11-23T07:43:04;36.53;;;26.63;;
69523;SDS011;56723;42.694;23.286;2022-11-23T07:45:32;57.70;;;41.30;;
69523;SDS011;56723;42.694;23.286;2022-11-23T07:48:06;27.00;;;19.03;;
69523;SDS011;56723;42.694;23.286;2022-11-23T07:50:35;17.38;;;14.13;;
69523;SDS011;56723;42.694;23.286;2022-11-23T07:53:04;24.13;;;16.33;;
69523;SDS011;56723;42.694;23.286;2022-11-23T07:55:33;21.33;;;17.90;;
69523;SDS011;56723;42.694;23.286;2022-11-23T07:58:00;23.05;;;18.60;;
69523;SDS011;56723;42.694;23.286;2022-11-23T08:00:27;20.15;;;15.05;;
69523;SDS011;56723;42.694;23.286;2022-11-23T08:02:58;21.00;;;15.80;;
69523;SDS011;56723;42.694;23.286;2022-11-23T08:05:47;20.20;;;15.20;;
69523;SDS011;56723;42.694;23.286;2022-11-23T08:08:14;13.85;;;12.35;;
69523;SDS011;56723;42.694;23.286;2022-11-23T08:10:41;20.15;;;16.58;;
69523;SDS011;56723;42.694;23.286;2022-11-23T08:13:15;15.90;;;13.88;;
69523;SDS011;56723;42.694;23.286;2022-11-23T08:15:42;19.17;;;14.90;;
69523;SDS011;56723;42.694;23.286;2022-11-23T08:18:14;23.42;;;16.88;;
69523;SDS011;56723;42.694;23.286;2022-11-23T08:20:40;16.55;;;14.82;;
69523;SDS011;56723;42.694;23.286;2022-11-23T08:23:07;19.45;;;17.38;;
69523;SDS011;56723;42.694;23.286;2022-11-23T08:25:34;20.05;;;16.35;;
69523;SDS011;56723;42.694;23.286;2022-11-23T08:28:03;18.65;;;16.67;;
69523;SDS011;56723;42.694;23.286;2022-11-23T08:30:30;19.67;;;17.55;;
69523;SDS011;56723;42.694;23.286;2022-11-23T08:33:01;20.70;;;16.85;;
69523;SDS011;56723;42.694;23.286;2022-11-23T08:35:31;18.00;;;16.10;;
69523;SDS011;56723;42.694;23.286;2022-11-23T08:37:59;18.70;;;14.90;;
69523;SDS011;56723;42.694;23.286;2022-11-23T08:40:26;19.48;;;15.98;;
69523;SDS011;56723;42.694;23.286;2022-11-23T08:42:53;21.00;;;16.05;;
69523;SDS011;56723;42.694;23.286;2022-11-23T08:45:21;21.60;;;17.85;;
69523;SDS011;56723;42.694;23.286;2022-11-23T08:47:48;22.63;;;18.67;;
69523;SDS011;56723;42.694;23.286;2022-11-23T08:50:16;22.42;;;16.90;;
69523;SDS011;56723;42.694;23.286;2022-11-23T08:52:43;17.65;;;15.75;;
69523;SDS011;56723;42.694;23.286;2022-11-23T08:55:10;18.15;;;15.85;;
69523;SDS011;56723;42.694;23.286;2022-11-23T08:57:37;19.83;;;16.60;;
69523;SDS011;56723;42.694;23.286;2022-11-23T09:00:06;14.73;;;12.30;;
69523;SDS011;56723;42.694;23.286;2022-11-23T09:02:35;15.10;;;13.13;;
69523;SDS011;56723;42.694;23.286;2022-11-23T09:05:03;15.32;;;13.18;;
69523;SDS011;56723;42.694;23.286;2022-11-23T09:07:32;17.48;;;13.02;;
69523;SDS011;56723;42.694;23.286;2022-11-23T09:09:59;18.75;;;15.65;;
69523;SDS011;56723;42.694;23.286;2022-11-23T09:12:28;18.48;;;14.82;;
69523;SDS011;56723;42.694;23.286;2022-11-23T09:14:55;17.45;;;15.43;;
69523;SDS011;56723;42.694;23.286;2022-11-23T09:17:21;18.95;;;15.48;;
69523;SDS011;56723;42.694;23.286;2022-11-23T09:19:48;20.45;;;16.08;;
69523;SDS011;56723;42.694;23.286;2022-11-23T09:22:18;19.73;;;15.50;;
69523;SDS011;56723;42.694;23.286;2022-11-23T09:24:45;19.67;;;16.92;;
69523;SDS011;56723;42.694;23.286;2022-11-23T09:27:12;18.23;;;15.65;;
69523;SDS011;56723;42.694;23.286;2022-11-23T09:29:40;16.60;;;14.38;;
69523;SDS011;56723;42.694;23.286;2022-11-23T09:32:07;16.17;;;13.07;;
69523;SDS011;56723;42.694;23.286;2022-11-23T09:34:34;18.92;;;14.48;;
69523;SDS011;56723;42.694;23.286;2022-11-23T09:37:01;15.48;;;12.90;;
69523;SDS011;56723;42.694;23.286;2022-11-23T09:39:28;15.45;;;12.43;;
69523;SDS011;56723;42.694;23.286;2022-11-23T09:50:44;13.95;;;11.40;;
69523;SDS011;56723;42.694;23.286;2022-11-23T09:53:16;14.80;;;11.00;;
69523;SDS011;56723;42.694;23.286;2022-11-23T09:58:29;10.48;;;9.20;;
69523;SDS011;56723;42.694;23.286;2022-11-23T10:01:03;11.27;;;8.80;;
69523;SDS011;56723;42.694;23.286;2022-11-23T10:03:36;11.38;;;8.57;;
69523;SDS011;56723;42.694;23.286;2022-11-23T10:17:23;9.20;;;7.18;;
69523;SDS011;56723;42.694;23.286;2022-11-23T10:23:06;6.45;;;4.50;;
69523;SDS011;56723;42.694;23.286;2022-11-23T10:25:41;5.82;;;4.63;;
69523;SDS011;56723;42.694;23.286;2022-11-23T10:28:13;7.88;;;5.28;;
69523;SDS011;56723;42.694;23.286;2022-11-23T10:30:44;7.57;;;6.28;;
69523;SDS011;56723;42.694;23.286;2022-11-23T10:33:29;8.68;;;6.70;;
69523;SDS011;56723;42.694;23.286;2022-11-23T10:36:03;7.35;;;5.50;;
69523;SDS011;56723;42.694;23.286;2022-11-23T10:38:30;7.32;;;4.97;;
69523;SDS011;56723;42.694;23.286;2022-11-23T10:41:02;5.57;;;4.43;;
69523;SDS011;56723;42.694;23.286;2022-11-23T10:43:36;4.13;;;3.20;;
69523;SDS011;56723;42.694;23.286;2022-11-23T10:46:23;7.55;;;3.58;;
69523;SDS011;56723;42.694;23.286;2022-11-23T10:49:18;4.72;;;3.70;;
69523;SDS011;56723;42.694;23.286;2022-11-23T10:51:52;3.65;;;2.63;;
69523;SDS011;56723;42.694;23.286;2022-11-23T10:57:26;3.95;;;2.33;;
69523;SDS011;56723;42.694;23.286;2022-11-23T10:59:59;5.40;;;2.25;;
69523;SDS011;56723;42.694;23.286;2022-11-23T11:02:28;2.95;;;1.60;;
69523;SDS011;56723;42.694;23.286;2022-11-23T11:05:25;4.70;;;1.70;;
69523;SDS011;56723;42.694;23.286;2022-11-23T11:08:20;1.85;;;0.40;;
69523;SDS011;56723;42.694;23.286;2022-11-23T11:13:28;1.55;;;0.17;;
69523;SDS011;56723;42.694;23.286;2022-11-23T11:16:01;1.10;;;0.32;;
69523;SDS011;56723;42.694;23.286;2022-11-23T11:18:33;1.35;;;0.10;;
69523;SDS011;56723;42.694;23.286;2022-11-23T11:21:20;1.38;;;0.40;;
69523;SDS011;56723;42.694;23.286;2022-11-23T11:23:53;3.38;;;1.33;;
69523;SDS011;56723;42.694;23.286;2022-11-23T11:26:25;1.88;;;0.50;;
69523;SDS011;56723;42.694;23.286;2022-11-23T11:28:56;2.45;;;0.93;;
69523;SDS011;56723;42.694;23.286;2022-11-23T11:36:36;1.83;;;0.73;;
69523;SDS011;56723;42.694;23.286;2022-11-23T11:39:13;2.65;;;1.00;;
69523;SDS011;56723;42.694;23.286;2022-11-23T11:41:46;2.70;;;1.23;;
69523;SDS011;56723;42.694;23.286;2022-11-23T11:44:21;4.97;;;1.20;;
69523;SDS011;56723;42.694;23.286;2022-11-23T11:46:59;6.45;;;3.25;;
69523;SDS011;56723;42.694;23.286;2022-11-23T11:49:36;4.60;;;2.45;;
69523;SDS011;56723;42.694;23.286;2022-11-23T11:52:10;2.67;;;1.65;;
69523;SDS011;56723;42.694;23.286;2022-11-23T11:54:52;2.88;;;1.33;;
69523;SDS011;56723;42.694;23.286;2022-11-23T11:58:23;2.90;;;1.35;;
69523;SDS011;56723;42.694;23.286;2022-11-23T12:00:37;1.00;;;0.50;;
69523;SDS011;56723;42.694;23.286;2022-11-23T12:06:27;3.35;;;0.50;;
69523;SDS011;56723;42.694;23.286;2022-11-23T12:09:10;0.65;;;0.10;;
69523;SDS011;56723;42.694;23.286;2022-11-23T12:11:43;0.90;;;0.10;;
69523;SDS011;56723;42.694;23.286;2022-11-23T12:14:11;1.17;;;0.10;;
69523;SDS011;56723;42.694;23.286;2022-11-23T12:19:14;0.82;;;0.17;;
69523;SDS011;56723;42.694;23.286;2022-11-23T12:21:50;2.70;;;0.10;;
69523;SDS011;56723;42.694;23.286;2022-11-23T12:46:27;0.30;;;0.10;;
69523;SDS011;56723;42.694;23.286;2022-11-23T12:51:52;0.60;;;0.15;;
69523;SDS011;56723;42.694;23.286;2022-11-23T12:54:40;0.85;;;0.10;;
69523;SDS011;56723;42.694;23.286;2022-11-23T12:59:47;2.85;;;1.00;;
69523;SDS011;56723;42.694;23.286;2022-11-23T13:02:33;2.00;;;0.57;;
69523;SDS011;56723;42.694;23.286;2022-11-23T13:21:39;8.50;;;6.97;;
69523;SDS011;56723;42.694;23.286;2022-11-23T13:35:01;3.15;;;0.57;;
69523;SDS011;56723;42.694;23.286;2022-11-23T13:37:27;1.40;;;0.40;;
69523;SDS011;56723;42.694;23.286;2022-11-23T13:42:25;2.25;;;0.55;;
69523;SDS011;56723;42.694;23.286;2022-11-23T13:50:30;1.10;;;0.20;;
69523;SDS011;56723;42.694;23.286;2022-11-23T13:52:58;3.38;;;0.20;;
69523;SDS011;56723;42.694;23.286;2022-11-23T14:00:57;1.50;;;0.20;;
69523;SDS011;56723;42.694;23.286;2022-11-23T14:03:44;2.42;;;1.33;;
69523;SDS011;56723;42.694;23.286;2022-11-23T14:11:30;2.22;;;0.30;;
69523;SDS011;56723;42.694;23.286;2022-11-23T14:14:14;1.88;;;0.50;;
69523;SDS011;56723;42.694;23.286;2022-11-23T14:19:42;1.48;;;0.30;;
69523;SDS011;56723;42.694;23.286;2022-11-23T14:26:06;2.50;;;0.30;;
69523;SDS011;56723;42.694;23.286;2022-11-23T14:36:40;1.00;;;0.10;;
69523;SDS011;56723;42.694;23.286;2022-11-23T14:42:09;0.80;;;0.10;;
69523;SDS011;56723;42.694;23.286;2022-11-23T14:44:39;1.00;;;0.20;;
69523;SDS011;56723;42.694;23.286;2022-11-23T14:47:09;2.55;;;0.20;;
69523;SDS011;56723;42.694;23.286;2022-11-23T14:49:46;1.00;;;0.20;;
69523;SDS011;56723;42.694;23.286;2022-11-23T14:52:17;2.53;;;0.20;;
69523;SDS011;56723;42.694;23.286;2022-11-23T14:54:50;2.13;;;0.55;;
69523;SDS011;56723;42.694;23.286;2022-11-23T14:57:20;1.05;;;0.10;;
69523;SDS011;56723;42.694;23.286;2022-11-23T14:59:54;1.85;;;0.30;;
69523;SDS011;56723;42.694;23.286;2022-11-23T15:02:28;3.70;;;0.50;;
69523;SDS011;56723;42.694;23.286;2022-11-23T15:05:02;2.78;;;0.20;;
69523;SDS011;56723;42.694;23.286;2022-11-23T15:12:41;2.90;;;0.73;;
69523;SDS011;56723;42.694;23.286;2022-11-23T15:15:17;2.67;;;0.77;;
69523;SDS011;56723;42.694;23.286;2022-11-23T15:17:56;3.50;;;1.17;;
69523;SDS011;56723;42.694;23.286;2022-11-23T15:20:33;1.95;;;0.95;;
69523;SDS011;56723;42.694;23.286;2022-11-23T15:23:10;1.50;;;0.50;;
69523;SDS011;56723;42.694;23.286;2022-11-23T15:28:24;1.40;;;0.40;;
69523;SDS011;56723;42.694;23.286;2022-11-23T15:30:52;2.25;;;0.40;;
69523;SDS011;56723;42.694;23.286;2022-11-23T15:33:24;2.67;;;0.60;;
69523;SDS011;56723;42.694;23.286;2022-11-23T15:35:51;0.68;;;0.20;;
69523;SDS011;56723;42.694;23.286;2022-11-23T15:38:20;3.08;;;0.40;;
69523;SDS011;56723;42.694;23.286;2022-11-23T15:40:49;1.20;;;0.20;;
69523;SDS011;56723;42.694;23.286;2022-11-23T15:43:17;1.30;;;0.30;;
69523;SDS011;56723;42.694;23.286;2022-11-23T15:48:18;3.13;;;0.43;;
69523;SDS011;56723;42.694;23.286;2022-11-23T15:50:52;1.77;;;0.20;;
69523;SDS011;56723;42.694;23.286;2022-11-23T15:53:36;2.90;;;0.57;;
69523;SDS011;56723;42.694;23.286;2022-11-23T15:56:10;1.25;;;0.20;;
69523;SDS011;56723;42.694;23.286;2022-11-23T15:58:47;3.67;;;0.43;;
69523;SDS011;56723;42.694;23.286;2022-11-23T16:01:15;1.63;;;0.40;;
69523;SDS011;56723;42.694;23.286;2022-11-23T16:03:52;2.53;;;0.82;;
69523;SDS011;56723;42.694;23.286;2022-11-23T16:06:23;1.23;;;0.40;;
69523;SDS011;56723;42.694;23.286;2022-11-23T16:09:01;1.77;;;0.30;;
69523;SDS011;56723;42.694;23.286;2022-11-23T16:11:42;1.75;;;0.40;;
69523;SDS011;56723;42.694;23.286;2022-11-23T16:14:25;1.80;;;0.50;;
69523;SDS011;56723;42.694;23.286;2022-11-23T16:17:04;3.25;;;0.95;;
69523;SDS011;56723;42.694;23.286;2022-11-23T16:19:41;3.58;;;1.42;;
69523;SDS011;56723;42.694;23.286;2022-11-23T16:22:16;5.40;;;1.00;;
69523;SDS011;56723;42.694;23.286;2022-11-23T16:25:06;5.25;;;1.10;;
69523;SDS011;56723;42.694;23.286;2022-11-23T16:27:42;2.55;;;0.60;;
69523;SDS011;56723;42.694;23.286;2022-11-23T16:30:24;2.63;;;0.50;;
69523;SDS011;56723;42.694;23.286;2022-11-23T16:32:54;5.68;;;0.93;;
69523;SDS011;56723;42.694;23.286;2022-11-23T16:35:20;1.52;;;0.30;;
69523;SDS011;56723;42.694;23.286;2022-11-23T16:37:47;2.47;;;0.52;;
69523;SDS011;56723;42.694;23.286;2022-11-23T16:40:14;1.30;;;0.30;;
69523;SDS011;56723;42.694;23.286;2022-11-23T16:42:42;4.15;;;1.75;;
69523;SDS011;56723;42.694;23.286;2022-11-23T16:45:09;4.20;;;1.00;;
69523;SDS011;56723;42.694;23.286;2022-11-23T16:47:49;6.30;;;3.60;;
69523;SDS011;56723;42.694;23.286;2022-11-23T16:50:21;5.05;;;1.52;;
69523;SDS011;56723;42.694;23.286;2022-11-23T16:52:49;3.33;;;1.52;;
69523;SDS011;56723;42.694;23.286;2022-11-23T16:55:17;3.42;;;1.13;;
69523;SDS011;56723;42.694;23.286;2022-11-23T16:57:44;4.35;;;1.55;;
69523;SDS011;56723;42.694;23.286;2022-11-23T17:00:21;5.90;;;2.22;;
69523;SDS011;56723;42.694;23.286;2022-11-23T17:02:48;2.15;;;1.13;;
69523;SDS011;56723;42.694;23.286;2022-11-23T17:05:17;1.88;;;0.43;;
69523;SDS011;56723;42.694;23.286;2022-11-23T17:07:46;1.95;;;0.50;;
69523;SDS011;56723;42.694;23.286;2022-11-23T17:10:13;2.88;;;0.60;;
69523;SDS011;56723;42.694;23.286;2022-11-23T17:12:51;3.42;;;0.20;;
69523;SDS011;56723;42.694;23.286;2022-11-23T17:15:22;1.30;;;0.28;;
69523;SDS011;56723;42.694;23.286;2022-11-23T17:17:50;2.60;;;0.30;;
69523;SDS011;56723;42.694;23.286;2022-11-23T17:20:17;2.97;;;0.28;;
69523;SDS011;56723;42.694;23.286;2022-11-23T17:22:44;5.55;;;1.30;;
69523;SDS011;56723;42.694;23.286;2022-11-23T17:25:11;3.75;;;0.68;;
69523;SDS011;56723;42.694;23.286;2022-11-23T17:27:40;7.10;;;1.40;;
69523;SDS011;56723;42.694;23.286;2022-11-23T17:30:13;3.90;;;1.30;;
69523;SDS011;56723;42.694;23.286;2022-11-23T17:32:46;4.57;;;1.33;;
69523;SDS011;56723;42.694;23.286;2022-11-23T17:35:15;4.93;;;1.05;;
69523;SDS011;56723;42.694;23.286;2022-11-23T17:37:42;5.10;;;0.90;;
69523;SDS011;56723;42.694;23.286;2022-11-23T17:40:13;4.35;;;1.00;;
69523;SDS011;56723;42.694;23.286;2022-11-23T17:42:42;3.05;;;0.52;;
69523;SDS011;56723;42.694;23.286;2022-11-23T17:45:09;2.30;;;0.30;;
69523;SDS011;56723;42.694;23.286;2022-11-23T17:47:36;4.63;;;0.80;;
69523;SDS011;56723;42.694;23.286;2022-11-23T17:50:14;4.20;;;0.77;;
69523;SDS011;56723;42.694;23.286;2022-11-23T17:52:45;5.40;;;0.55;;
69523;SDS011;56723;42.694;23.286;2022-11-23T17:55:13;1.65;;;0.30;;
69523;SDS011;56723;42.694;23.286;2022-11-23T17:57:41;2.15;;;0.47;;
69523;SDS011;56723;42.694;23.286;2022-11-23T18:00:19;2.40;;;0.38;;
69523;SDS011;56723;42.694;23.286;2022-11-23T18:02:48;2.45;;;0.43;;
69523;SDS011;56723;42.694;23.286;2022-11-23T18:05:15;11.13;;;4.85;;
69523;SDS011;56723;42.694;23.286;2022-11-23T18:07:47;8.98;;;4.20;;
69523;SDS011;56723;42.694;23.286;2022-11-23T18:10:15;16.50;;;8.32;;
69523;SDS011;56723;42.694;23.286;2022-11-23T18:12:43;14.80;;;7.53;;
69523;SDS011;56723;42.694;23.286;2022-11-23T18:15:10;19.77;;;9.15;;
69523;SDS011;56723;42.694;23.286;2022-11-23T18:17:38;16.75;;;7.95;;
69523;SDS011;56723;42.694;23.286;2022-11-23T18:20:08;4.63;;;1.38;;
69523;SDS011;56723;42.694;23.286;2022-11-23T18:22:35;2.55;;;0.82;;
69523;SDS011;56723;42.694;23.286;2022-11-23T18:25:02;5.05;;;1.92;;
69523;SDS011;56723;42.694;23.286;2022-11-23T18:27:29;2.85;;;0.70;;
69523;SDS011;56723;42.694;23.286;2022-11-23T18:29:58;3.22;;;0.90;;
69523;SDS011;56723;42.694;23.286;2022-11-23T18:32:25;8.35;;;1.40;;
69523;SDS011;56723;42.694;23.286;2022-11-23T18:34:53;3.45;;;0.63;;
69523;SDS011;56723;42.694;23.286;2022-11-23T18:37:20;6.07;;;0.93;;
69523;SDS011;56723;42.694;23.286;2022-11-23T18:39:49;6.50;;;1.45;;
69523;SDS011;56723;42.694;23.286;2022-11-23T18:42:16;5.75;;;1.30;;
69523;SDS011;56723;42.694;23.286;2022-11-23T18:44:42;4.28;;;1.30;;
69523;SDS011;56723;42.694;23.286;2022-11-23T18:47:09;5.70;;;1.00;;
69523;SDS011;56723;42.694;23.286;2022-11-23T18:49:36;6.07;;;1.58;;
69523;SDS011;56723;42.694;23.286;2022-11-23T18:52:03;6.45;;;1.58;;
69523;SDS011;56723;42.694;23.286;2022-11-23T18:54:30;6.10;;;1.73;;
69523;SDS011;56723;42.694;23.286;2022-11-23T18:56:57;5.55;;;1.98;;
69523;SDS011;56723;42.694;23.286;2022-11-23T18:59:24;9.25;;;2.75;;
69523;SDS011;56723;42.694;23.286;2022-11-23T19:02:11;7.63;;;2.65;;
69523;SDS011;56723;42.694;23.286;2022-11-23T19:04:38;6.55;;;2.15;;
69523;SDS011;56723;42.694;23.286;2022-11-23T19:07:05;10.57;;;5.40;;
69523;SDS011;56723;42.694;23.286;2022-11-23T19:09:35;14.07;;;5.80;;
69523;SDS011;56723;42.694;23.286;2022-11-23T19:12:02;12.50;;;6.57;;
69523;SDS011;56723;42.694;23.286;2022-11-23T19:16:58;25.45;;;13.32;;
69523;SDS011;56723;42.694;23.286;2022-11-23T19:19:25;21.60;;;13.05;;
69523;SDS011;56723;42.694;23.286;2022-11-23T19:21:53;28.60;;;13.55;;
69523;SDS011;56723;42.694;23.286;2022-11-23T19:24:20;21.23;;;11.75;;
69523;SDS011;56723;42.694;23.286;2022-11-23T19:26:47;19.17;;;10.63;;
69523;SDS011;56723;42.694;23.286;2022-11-23T19:29:14;15.88;;;7.32;;
69523;SDS011;56723;42.694;23.286;2022-11-23T19:31:50;17.80;;;7.93;;
69523;SDS011;56723;42.694;23.286;2022-11-23T19:34:21;14.13;;;5.90;;
69523;SDS011;56723;42.694;23.286;2022-11-23T19:36:48;15.15;;;5.88;;
69523;SDS011;56723;42.694;23.286;2022-11-23T19:39:15;10.80;;;4.75;;
69523;SDS011;56723;42.694;23.286;2022-11-23T19:41:41;9.32;;;3.30;;
69523;SDS011;56723;42.694;23.286;2022-11-23T19:44:09;10.80;;;3.58;;
69523;SDS011;56723;42.694;23.286;2022-11-23T19:46:36;12.50;;;3.20;;
69523;SDS011;56723;42.694;23.286;2022-11-23T19:49:04;8.35;;;2.28;;
69523;SDS011;56723;42.694;23.286;2022-11-23T19:51:35;5.05;;;2.30;;
69523;SDS011;56723;42.694;23.286;2022-11-23T19:54:02;13.43;;;3.85;;
69523;SDS011;56723;42.694;23.286;2022-11-23T19:56:31;9.65;;;4.75;;
69523;SDS011;56723;42.694;23.286;2022-11-23T19:58:59;11.00;;;4.13;;
69523;SDS011;56723;42.694;23.286;2022-11-23T20:01:27;12.63;;;4.90;;
69523;SDS011;56723;42.694;23.286;2022-11-23T20:03:58;10.30;;;4.30;;
69523;SDS011;56723;42.694;23.286;2022-11-23T20:06:35;8.40;;;4.05;;
69523;SDS011;56723;42.694;23.286;2022-11-23T20:09:04;10.20;;;3.88;;
69523;SDS011;56723;42.694;23.286;2022-11-23T20:11:33;12.95;;;4.35;;
69523;SDS011;56723;42.694;23.286;2022-11-23T20:14:01;13.38;;;6.70;;
69523;SDS011;56723;42.694;23.286;2022-11-23T20:16:29;14.82;;;7.03;;
69523;SDS011;56723;42.694;23.286;2022-11-23T20:18:58;13.55;;;6.32;;
69523;SDS011;56723;42.694;23.286;2022-11-23T20:21:27;11.93;;;6.47;;
69523;SDS011;56723;42.694;23.286;2022-11-23T20:23:59;11.00;;;4.95;;
69523;SDS011;56723;42.694;23.286;2022-11-23T20:26:31;10.95;;;5.90;;
69523;SDS011;56723;42.694;23.286;2022-11-23T20:28:59;14.55;;;6.38;;
69523;SDS011;56723;42.694;23.286;2022-11-23T20:31:27;12.10;;;6.28;;
69523;SDS011;56723;42.694;23.286;2022-11-23T20:33:56;11.93;;;5.60;;
69523;SDS011;56723;42.694;23.286;2022-11-23T20:36:27;12.50;;;6.60;;
69523;SDS011;56723;42.694;23.286;2022-11-23T20:38:55;13.38;;;5.85;;
69523;SDS011;56723;42.694;23.286;2022-11-23T20:41:23;13.88;;;5.95;;
69523;SDS011;56723;42.694;23.286;2022-11-23T20:46:21;11.40;;;5.80;;
69523;SDS011;56723;42.694;23.286;2022-11-23T20:49:09;17.17;;;5.40;;
69523;SDS011;56723;42.694;23.286;2022-11-23T20:51:36;18.33;;;7.60;;
69523;SDS011;56723;42.694;23.286;2022-11-23T20:54:02;11.63;;;6.07;;
69523;SDS011;56723;42.694;23.286;2022-11-23T20:56:29;16.67;;;8.20;;
69523;SDS011;56723;42.694;23.286;2022-11-23T20:58:57;11.43;;;6.33;;
69523;SDS011;56723;42.694;23.286;2022-11-23T21:01:29;14.05;;;7.20;;
69523;SDS011;56723;42.694;23.286;2022-11-23T21:03:57;16.48;;;6.93;;
69523;SDS011;56723;42.694;23.286;2022-11-23T21:06:29;15.64;;;7.74;;
69523;SDS011;56723;42.694;23.286;2022-11-23T21:09:03;14.85;;;6.40;;
69523;SDS011;56723;42.694;23.286;2022-11-23T21:11:30;15.80;;;8.18;;
69523;SDS011;56723;42.694;23.286;2022-11-23T21:14:17;13.13;;;6.78;;
69523;SDS011;56723;42.694;23.286;2022-11-23T21:16:51;13.48;;;6.65;;
69523;SDS011;56723;42.694;23.286;2022-11-23T21:19:22;14.23;;;6.93;;
69523;SDS011;56723;42.694;23.286;2022-11-23T21:21:51;14.68;;;7.10;;
69523;SDS011;56723;42.694;23.286;2022-11-23T21:24:19;12.43;;;6.03;;
69523;SDS011;56723;42.694;23.286;2022-11-23T21:26:46;12.35;;;7.78;;
69523;SDS011;56723;42.694;23.286;2022-11-23T21:29:16;13.27;;;5.70;;
69523;SDS011;56723;42.694;23.286;2022-11-23T21:31:44;10.07;;;4.43;;
69523;SDS011;56723;42.694;23.286;2022-11-23T21:36:43;13.77;;;6.25;;
69523;SDS011;56723;42.694;23.286;2022-11-23T21:39:10;8.85;;;5.18;;
69523;SDS011;56723;42.694;23.286;2022-11-23T21:41:37;8.20;;;4.28;;
69523;SDS011;56723;42.694;23.286;2022-11-23T21:44:05;11.00;;;4.80;;
69523;SDS011;56723;42.694;23.286;2022-11-23T21:46:34;9.63;;;5.37;;
69523;SDS011;56723;42.694;23.286;2022-11-23T21:49:02;10.52;;;4.35;;
69523;SDS011;56723;42.694;23.286;2022-11-23T21:51:32;7.25;;;4.55;;
69523;SDS011;56723;42.694;23.286;2022-11-23T21:54:00;7.15;;;4.15;;
69523;SDS011;56723;42.694;23.286;2022-11-23T21:56:30;8.32;;;4.82;;
69523;SDS011;56723;42.694;23.286;2022-11-23T21:58:57;9.20;;;5.00;;
69523;SDS011;56723;42.694;23.286;2022-11-23T22:01:28;9.70;;;5.55;;
69523;SDS011;56723;42.694;23.286;2022-11-23T22:03:58;9.30;;;4.73;;
69523;SDS011;56723;42.694;23.286;2022-11-23T22:06:26;11.20;;;5.50;;
69523;SDS011;56723;42.694;23.286;2022-11-23T22:08:55;13.57;;;5.97;;
69523;SDS011;56723;42.694;23.286;2022-11-23T22:11:23;11.27;;;5.35;;
69523;SDS011;56723;42.694;23.286;2022-11-23T22:13:53;9.13;;;5.47;;
69523;SDS011;56723;42.694;23.286;2022-11-23T22:18:53;12.43;;;4.93;;
69523;SDS011;56723;42.694;23.286;2022-11-23T22:21:22;9.20;;;4.85;;
69523;SDS011;56723;42.694;23.286;2022-11-23T22:24:00;13.45;;;5.70;;
69523;SDS011;56723;42.694;23.286;2022-11-23T22:26:27;7.03;;;4.53;;
69523;SDS011;56723;42.694;23.286;2022-11-23T22:28:54;12.30;;;5.40;;
69523;SDS011;56723;42.694;23.286;2022-11-23T22:31:22;7.27;;;4.43;;
69523;SDS011;56723;42.694;23.286;2022-11-23T22:33:51;8.68;;;4.00;;
69523;SDS011;56723;42.694;23.286;2022-11-23T22:36:19;7.47;;;3.93;;
69523;SDS011;56723;42.694;23.286;2022-11-23T22:38:52;7.55;;;3.35;;
69523;SDS011;56723;42.694;23.286;2022-11-23T22:43:54;8.60;;;4.00;;
69523;SDS011;56723;42.694;23.286;2022-11-23T22:46:22;8.70;;;3.73;;
69523;SDS011;56723;42.694;23.286;2022-11-23T22:48:50;7.32;;;4.57;;
69523;SDS011;56723;42.694;23.286;2022-11-23T22:51:19;7.57;;;4.30;;
69523;SDS011;56723;42.694;23.286;2022-11-23T22:53:51;7.30;;;3.60;;
69523;SDS011;56723;42.694;23.286;2022-11-23T22:56:19;6.10;;;3.37;;
69523;SDS011;56723;42.694;23.286;2022-11-23T22:58:47;12.60;;;6.40;;
69523;SDS011;56723;42.694;23.286;2022-11-23T23:01:18;9.03;;;3.60;;
69523;SDS011;56723;42.694;23.286;2022-11-23T23:03:47;8.00;;;4.20;;
69523;SDS011;56723;42.694;23.286;2022-11-23T23:06:17;7.53;;;4.00;;
69523;SDS011;56723;42.694;23.286;2022-11-23T23:08:46;6.27;;;3.57;;
69523;SDS011;56723;42.694;23.286;2022-11-23T23:11:18;7.30;;;3.70;;
69523;SDS011;56723;42.694;23.286;2022-11-23T23:13:46;9.50;;;4.10;;
69523;SDS011;56723;42.694;23.286;2022-11-23T23:16:13;7.50;;;3.90;;
69523;SDS011;56723;42.694;23.286;2022-11-23T23:18:40;8.90;;;4.13;;
69523;SDS011;56723;42.694;23.286;2022-11-23T23:21:15;7.83;;;3.37;;
69523;SDS011;56723;42.694;23.286;2022-11-23T23:23:45;6.63;;;3.47;;
69523;SDS011;56723;42.694;23.286;2022-11-23T23:26:14;8.40;;;2.67;;
69523;SDS011;56723;42.694;23.286;2022-11-23T23:28:43;8.40;;;3.83;;
69523;SDS011;56723;42.694;23.286;2022-11-23T23:31:12;9.63;;;4.90;;
69523;SDS011;56723;42.694;23.286;2022-11-23T23:33:44;11.20;;;6.10;;
69523;SDS011;56723;42.694;23.286;2022-11-23T23:36:28;13.30;;;7.00;;
69523;SDS011;56723;42.694;23.286;2022-11-23T23:38:55;14.00;;;6.77;;
69523;SDS011;56723;42.694;23.286;2022-11-23T23:41:25;15.17;;;6.13;;
69523;SDS011;56723;42.694;23.286;2022-11-23T23:43:52;9.00;;;5.57;;
69523;SDS011;56723;42.694;23.286;2022-11-23T23:46:19;10.90;;;5.13;;
69523;SDS011;56723;42.694;23.286;2022-11-23T23:48:46;11.87;;;6.10;;